Time;durP1;ratioP1;P1;durP2;ratioP2;P2;SDS_P1;SDS_P2;PMS_P1;PMS_P2;Temp;Humidity;BMP_temperature;BMP_pressure;BME280_temperature;BME280_humidity;BME280_pressure;Samples;Min_cycle;Max_cycle;Signal;HPM_P1;HPM_P2
2022/04/04 00:00:07;;;;;;;14.70;12.43;;;1.50;99.90;;;;;;5033893;28;20404;-72
2022/04/04 00:02:33;;;;;;;13.70;12.10;;;1.50;99.90;;;;;;5033947;28;20455;-72
2022/04/04 00:04:59;;;;;;;13.20;10.87;;;1.40;99.90;;;;;;5033530;28;20947;-72
2022/04/04 00:07:25;;;;;;;12.93;11.60;;;1.50;99.90;;;;;;5033731;28;20254;-70
2022/04/04 00:09:51;;;;;;;14.43;11.33;;;1.40;99.90;;;;;;5033802;28;20164;-71
2022/04/04 00:12:17;;;;;;;13.83;12.30;;;1.40;99.90;;;;;;5033647;28;20496;-70
2022/04/04 00:14:43;;;;;;;15.07;12.90;;;1.40;99.90;;;;;;5033879;28;20409;-70
2022/04/04 00:17:09;;;;;;;15.73;11.97;;;1.30;99.90;;;;;;5033849;28;20420;-70
2022/04/04 00:19:34;;;;;;;11.77;10.67;;;1.30;99.90;;;;;;5032359;28;20918;-72
2022/04/04 00:22:00;;;;;;;12.27;11.07;;;1.30;99.90;;;;;;5031111;28;20207;-71
2022/04/04 00:24:27;;;;;;;14.70;11.63;;;1.30;99.90;;;;;;5022986;28;20661;-71
2022/04/04 00:26:52;;;;;;;13.20;11.90;;;1.30;99.90;;;;;;5014248;28;20550;-71
2022/04/04 00:29:18;;;;;;;11.70;10.27;;;1.10;99.90;;;;;;5012960;28;20407;-72
2022/04/04 00:31:44;;;;;;;12.57;11.27;;;1.10;99.90;;;;;;4995418;28;20175;-71
2022/04/04 00:34:10;;;;;;;16.73;12.30;;;1.10;99.90;;;;;;5013294;28;20895;-71
2022/04/04 00:36:36;;;;;;;13.20;11.77;;;1.10;99.90;;;;;;5013386;28;20265;-71
2022/04/04 00:39:02;;;;;;;12.40;11.20;;;1.10;99.90;;;;;;5013509;28;20179;-72
2022/04/04 00:41:27;;;;;;;13.70;11.00;;;1.20;99.90;;;;;;5013258;28;20895;-72
2022/04/04 00:43:53;;;;;;;12.20;10.80;;;1.20;99.90;;;;;;5013765;28;20458;-72
2022/04/04 00:46:19;;;;;;;11.60;10.53;;;1.20;99.90;;;;;;5013944;28;20547;-71
2022/04/04 00:48:47;;;;;;;14.37;12.87;;;1.30;99.90;;;;;;5012576;28;20445;-72
2022/04/04 00:51:13;;;;;;;11.80;10.67;;;1.20;99.90;;;;;;5012947;28;20463;-70
2022/04/04 00:53:39;;;;;;;11.53;10.43;;;1.20;99.90;;;;;;5029699;28;20506;-71
2022/04/04 00:56:07;;;;;;;10.10;9.10;;;1.20;99.90;;;;;;5033254;28;20161;-71
2022/04/04 00:58:36;;;;;;;13.73;12.43;;;1.10;99.90;;;;;;5032968;28;20796;-70
2022/04/04 01:01:03;;;;;;;14.40;10.80;;;1.10;99.90;;;;;;5033041;28;20411;-71
2022/04/04 01:03:28;;;;;;;12.83;11.03;;;1.00;99.90;;;;;;5032854;28;20445;-70
2022/04/04 01:05:57;;;;;;;10.53;9.00;;;0.90;99.90;;;;;;5032669;28;20401;-71
2022/04/04 01:08:23;;;;;;;11.60;10.47;;;0.90;99.90;;;;;;5032734;28;20280;-72
2022/04/04 01:10:49;;;;;;;12.90;11.67;;;0.90;99.90;;;;;;5033217;28;20436;-71
2022/04/04 01:13:15;;;;;;;12.47;10.60;;;0.90;99.90;;;;;;5032777;28;20408;-71
2022/04/04 01:15:40;;;;;;;12.30;10.30;;;1.00;99.90;;;;;;5015154;28;20260;-70
2022/04/04 01:18:08;;;;;;;11.80;10.50;;;1.00;99.90;;;;;;5032717;28;20191;-71
2022/04/04 01:20:34;;;;;;;13.20;11.43;;;1.10;99.90;;;;;;5031547;28;20524;-71
2022/04/04 01:23:00;;;;;;;11.87;10.57;;;1.00;99.90;;;;;;5033165;28;20456;-70
2022/04/04 01:25:29;;;;;;;10.83;9.73;;;1.10;99.90;;;;;;5033169;28;20966;-70
2022/04/04 01:27:55;;;;;;;10.90;9.20;;;1.10;99.90;;;;;;5033012;28;20465;-71
2022/04/04 01:30:25;;;;;;;14.63;11.60;;;1.00;99.90;;;;;;5032742;28;20412;-71
2022/04/04 01:32:51;;;;;;;10.83;9.73;;;1.10;99.90;;;;;;5015317;28;20414;-72
2022/04/04 01:35:17;;;;;;;15.03;12.53;;;1.00;99.90;;;;;;5034513;28;20776;-72
2022/04/04 01:37:43;;;;;;;12.63;11.20;;;1.10;99.90;;;;;;5042378;28;20425;-72
2022/04/04 01:40:10;;;;;;;10.97;9.97;;;1.00;99.90;;;;;;5036887;28;20945;-72
2022/04/04 01:42:37;;;;;;;14.40;11.30;;;1.00;99.90;;;;;;5015469;28;20205;-71
2022/04/04 01:45:07;;;;;;;12.73;11.20;;;1.00;99.90;;;;;;5033624;28;20579;-71
2022/04/04 01:47:33;;;;;;;11.70;9.93;;;1.00;99.90;;;;;;5032374;28;20452;-72
2022/04/04 01:49:59;;;;;;;11.67;10.30;;;1.00;99.90;;;;;;5013649;28;20506;-72
2022/04/04 01:52:25;;;;;;;11.50;10.40;;;1.00;99.90;;;;;;5032859;28;20679;-72
2022/04/04 01:54:51;;;;;;;11.83;10.63;;;1.00;99.90;;;;;;5035028;28;20406;-72
2022/04/04 01:57:17;;;;;;;12.90;11.03;;;0.90;99.90;;;;;;5036162;28;20420;-72
2022/04/04 01:59:43;;;;;;;11.87;10.10;;;0.80;99.90;;;;;;5036225;28;20408;-72
2022/04/04 02:02:09;;;;;;;16.80;10.83;;;0.80;99.90;;;;;;5036129;28;20168;-71
2022/04/04 02:04:35;;;;;;;10.53;9.60;;;0.70;99.90;;;;;;5035700;28;20583;-72
2022/04/04 02:07:01;;;;;;;12.70;11.47;;;0.70;99.90;;;;;;5036279;28;20425;-71
2022/04/04 02:09:26;;;;;;;12.23;10.80;;;0.70;99.90;;;;;;5035151;28;20651;-71
2022/04/04 02:11:52;;;;;;;11.37;9.60;;;0.60;99.90;;;;;;5036013;28;20411;-71
2022/04/04 02:14:18;;;;;;;11.13;9.40;;;0.70;99.90;;;;;;5036259;28;20575;-71
2022/04/04 02:16:45;;;;;;;10.30;9.30;;;0.70;99.90;;;;;;5035948;28;20581;-71
2022/04/04 02:19:11;;;;;;;18.10;9.67;;;0.60;99.90;;;;;;5035344;28;20200;-71
2022/04/04 02:21:37;;;;;;;14.63;10.30;;;0.60;99.90;;;;;;5035940;28;20402;-71
2022/04/04 02:24:04;;;;;;;11.33;10.13;;;0.60;99.90;;;;;;5036007;28;20448;-71
2022/04/04 02:26:29;;;;;;;11.63;10.40;;;0.60;99.90;;;;;;5035845;28;20403;-71
2022/04/04 02:28:55;;;;;;;12.10;10.77;;;0.50;99.90;;;;;;5035972;28;20405;-71
2022/04/04 02:31:21;;;;;;;11.90;10.27;;;0.50;99.90;;;;;;5035947;28;20530;-71
2022/04/04 02:33:46;;;;;;;11.50;9.97;;;0.40;99.90;;;;;;5017695;28;20263;-74
2022/04/04 02:36:12;;;;;;;11.90;10.57;;;0.50;99.90;;;;;;5033960;28;20200;-72
2022/04/04 02:38:38;;;;;;;11.20;10.10;;;0.50;99.90;;;;;;5035614;28;20220;-72
2022/04/04 02:41:04;;;;;;;10.00;9.00;;;0.50;99.90;;;;;;5035504;28;20165;-71
2022/04/04 02:43:30;;;;;;;13.00;10.70;;;0.50;99.90;;;;;;5035560;28;20456;-71
2022/04/04 02:45:56;;;;;;;13.73;10.17;;;0.50;99.90;;;;;;5035325;28;20486;-71
2022/04/04 02:48:22;;;;;;;11.40;9.77;;;0.40;99.90;;;;;;5034110;28;20193;-71
2022/04/04 02:50:47;;;;;;;12.33;9.70;;;0.40;99.90;;;;;;5033270;28;20192;-70
2022/04/04 02:53:13;;;;;;;11.40;10.10;;;0.50;99.90;;;;;;5035116;28;20291;-69
2022/04/04 02:58:23;;;;;;;9.47;8.47;;;0.40;99.90;;;;;;5035134;28;20199;-71
2022/04/04 03:00:49;;;;;;;12.57;9.83;;;0.50;99.90;;;;;;5035066;28;20411;-71
2022/04/04 03:03:14;;;;;;;10.60;9.60;;;0.40;99.90;;;;;;5035204;28;20215;-70
2022/04/04 03:05:40;;;;;;;11.70;9.43;;;0.40;99.90;;;;;;5016240;28;20176;-71
2022/04/04 03:08:06;;;;;;;11.10;10.00;;;0.40;99.90;;;;;;5034878;28;20192;-71
2022/04/04 03:10:35;;;;;;;11.40;10.20;;;0.40;99.90;;;;;;5035204;28;20165;-71
2022/04/04 03:13:04;;;;;;;11.43;8.93;;;0.40;99.90;;;;;;5035078;28;20490;-71
2022/04/04 03:15:31;;;;;;;13.00;10.30;;;0.40;99.90;;;;;;5031129;28;20430;-71
2022/04/04 03:17:57;;;;;;;11.73;10.57;;;0.40;99.90;;;;;;5026572;28;20432;-72
2022/04/04 03:20:24;;;;;;;10.57;9.47;;;0.40;99.90;;;;;;5015531;28;20428;-71
2022/04/04 03:22:53;;;;;;;10.90;9.80;;;0.30;99.90;;;;;;5034377;28;20454;-70
2022/04/04 03:25:19;;;;;;;13.40;10.67;;;0.30;99.90;;;;;;5035102;28;20400;-71
2022/04/04 03:27:46;;;;;;;12.50;10.37;;;0.30;99.90;;;;;;5034483;28;20447;-71
2022/04/04 03:30:15;;;;;;;12.60;10.47;;;0.30;99.90;;;;;;5033982;28;20958;-71
2022/04/04 03:32:41;;;;;;;13.07;11.67;;;0.30;99.90;;;;;;5034457;28;20412;-71
2022/04/04 03:35:07;;;;;;;12.00;10.73;;;0.30;99.90;;;;;;5034129;28;20490;-71
2022/04/04 03:37:35;;;;;;;12.67;11.43;;;0.30;99.90;;;;;;5034282;28;20198;-72
2022/04/04 03:40:02;;;;;;;11.70;10.13;;;0.30;99.90;;;;;;5034200;28;20753;-71
2022/04/04 03:42:29;;;;;;;11.70;10.50;;;0.20;99.90;;;;;;5034318;28;20439;-71
2022/04/04 03:44:54;;;;;;;14.10;12.60;;;0.20;99.90;;;;;;5034670;28;20416;-71
2022/04/04 03:47:21;;;;;;;12.53;11.20;;;0.10;99.90;;;;;;5016300;28;20846;-71
2022/04/04 03:49:47;;;;;;;13.80;12.37;;;0.10;99.90;;;;;;5033692;28;20171;-72
2022/04/04 03:52:12;;;;;;;13.20;11.90;;;0.10;99.90;;;;;;5045424;23;20553;-70
2022/04/04 03:54:38;;;;;;;14.87;11.83;;;0.00;99.90;;;;;;5022328;28;20260;-70
2022/04/04 03:57:04;;;;;;;15.20;11.80;;;0.00;99.90;;;;;;5013194;28;20169;-69
2022/04/04 03:59:30;;;;;;;12.93;11.53;;;-0.10;99.90;;;;;;5014097;28;20195;-70
2022/04/04 04:01:55;;;;;;;13.90;12.50;;;-0.10;99.90;;;;;;5014262;28;20467;-70
2022/04/04 04:04:21;;;;;;;12.87;11.57;;;-0.20;99.90;;;;;;4996103;28;20236;-68
2022/04/04 04:06:46;;;;;;;11.13;9.93;;;-0.30;99.90;;;;;;5013687;28;20165;-68
2022/04/04 04:09:13;;;;;;;12.03;10.57;;;-0.20;99.90;;;;;;5013932;28;20164;-69
2022/04/04 04:11:39;;;;;;;10.30;9.23;;;-0.20;99.90;;;;;;5014527;28;20670;-70
2022/04/04 04:14:05;;;;;;;15.17;10.97;;;-0.10;99.90;;;;;;5014029;28;20407;-69
2022/04/04 04:16:31;;;;;;;12.93;10.93;;;-0.10;99.90;;;;;;4995467;28;20180;-68
2022/04/04 04:18:57;;;;;;;12.90;11.47;;;-0.10;99.90;;;;;;5013773;28;20172;-70
2022/04/04 04:21:23;;;;;;;13.93;11.90;;;-0.10;99.90;;;;;;5030988;28;20427;-70
2022/04/04 04:23:50;;;;;;;15.10;13.50;;;-0.10;99.90;;;;;;5033181;28;20444;-69
2022/04/04 04:26:17;;;;;;;14.70;12.40;;;0.00;99.90;;;;;;5026526;28;20416;-70
2022/04/04 04:28:44;;;;;;;15.63;12.37;;;0.00;99.90;;;;;;5023875;28;21014;-72
2022/04/04 04:31:10;;;;;;;13.43;11.90;;;0.10;99.90;;;;;;5006188;28;20470;-70
2022/04/04 04:33:36;;;;;;;16.53;13.03;;;0.10;99.90;;;;;;5024259;28;20430;-71
2022/04/04 04:36:02;;;;;;;16.60;13.93;;;0.10;99.90;;;;;;5023607;28;20559;-74
2022/04/04 04:38:30;;;;;;;13.17;11.33;;;0.10;99.90;;;;;;5005983;28;20472;-70
2022/04/04 04:40:56;;;;;;;12.60;11.30;;;0.10;99.90;;;;;;5023770;28;20443;-70
2022/04/04 04:43:22;;;;;;;13.07;11.77;;;0.10;99.90;;;;;;5024024;28;20459;-72
2022/04/04 04:45:48;;;;;;;13.07;11.67;;;0.10;99.90;;;;;;5024076;28;20473;-71
2022/04/04 04:48:14;;;;;;;11.20;10.10;;;0.10;99.90;;;;;;5024068;28;21126;-73
2022/04/04 04:50:40;;;;;;;11.30;10.10;;;0.10;99.90;;;;;;5023648;28;20264;-69
2022/04/04 04:53:05;;;;;;;11.40;10.20;;;0.00;99.90;;;;;;5023514;28;20971;-71
2022/04/04 04:55:31;;;;;;;10.57;9.33;;;0.10;99.90;;;;;;5023746;28;20435;-71
2022/04/04 04:57:57;;;;;;;11.03;9.73;;;0.10;99.90;;;;;;5024402;28;20195;-70
2022/04/04 05:00:28;;;;;;;12.10;10.60;;;0.10;99.90;;;;;;5022187;28;20529;-70
2022/04/04 05:05:40;;;;;;;13.60;10.47;;;0.10;99.90;;;;;;5023793;28;20749;-70
2022/04/04 05:08:07;;;;;;;10.30;9.30;;;0.20;99.90;;;;;;5024060;28;20446;-73
2022/04/04 05:10:33;;;;;;;10.87;9.77;;;0.20;99.90;;;;;;5024100;28;20404;-70
2022/04/04 05:12:58;;;;;;;9.90;9.00;;;0.20;99.90;;;;;;5006554;28;20569;-70
2022/04/04 05:15:24;;;;;;;9.83;8.73;;;0.20;99.90;;;;;;5024023;28;21003;-71
2022/04/04 05:17:51;;;;;;;9.67;8.67;;;0.10;99.90;;;;;;5023745;28;20180;-69
2022/04/04 05:20:17;;;;;;;11.13;9.57;;;0.10;99.90;;;;;;5022221;28;20177;-70
2022/04/04 05:22:43;;;;;;;12.03;10.70;;;0.20;99.90;;;;;;5022996;28;20456;-68
2022/04/04 05:25:09;;;;;;;10.40;9.40;;;0.30;99.90;;;;;;5005837;28;20411;-69
2022/04/04 05:27:36;;;;;;;10.23;9.17;;;0.40;99.90;;;;;;5024373;28;20182;-71
2022/04/04 05:30:02;;;;;;;9.40;8.47;;;0.40;99.90;;;;;;5010197;28;20184;-70
2022/04/04 05:32:29;;;;;;;10.57;9.20;;;0.30;99.90;;;;;;5009584;28;20447;-70
2022/04/04 05:34:54;;;;;;;10.60;9.50;;;0.20;99.90;;;;;;5029520;28;20446;-68
2022/04/04 05:37:20;;;;;;;9.83;8.73;;;0.20;99.90;;;;;;5027555;28;20984;-69
2022/04/04 05:39:46;;;;;;;10.70;9.60;;;0.20;99.90;;;;;;5027378;28;20167;-70
2022/04/04 05:42:11;;;;;;;11.00;9.27;;;0.30;99.90;;;;;;5027013;28;20251;-72
2022/04/04 05:44:37;;;;;;;11.73;10.33;;;0.30;99.90;;;;;;5027253;28;20271;-70
2022/04/04 05:47:03;;;;;;;10.57;9.47;;;0.40;99.90;;;;;;5027526;28;20165;-69
2022/04/04 05:49:29;;;;;;;9.90;8.30;;;0.50;99.90;;;;;;5027308;28;20657;-69
2022/04/04 05:51:55;;;;;;;9.10;8.20;;;0.60;99.90;;;;;;5026668;28;20463;-68
2022/04/04 05:54:20;;;;;;;9.20;8.30;;;0.70;99.90;;;;;;5027226;28;20186;-68
2022/04/04 05:56:46;;;;;;;10.97;9.33;;;0.70;99.90;;;;;;5009120;28;20189;-68
2022/04/04 05:59:15;;;;;;;9.67;8.67;;;0.70;99.90;;;;;;5026286;28;20181;-71
2022/04/04 06:01:41;;;;;;;11.13;9.00;;;0.80;99.90;;;;;;5009226;28;20206;-70
2022/04/04 06:04:06;;;;;;;10.07;9.07;;;0.90;99.90;;;;;;5026829;28;20456;-69
2022/04/04 06:06:32;;;;;;;8.70;7.80;;;1.00;99.90;;;;;;5008206;28;20432;-69
2022/04/04 06:08:58;;;;;;;10.33;8.80;;;1.10;99.90;;;;;;5026658;28;20181;-69
2022/04/04 06:11:24;;;;;;;10.47;9.40;;;1.10;99.90;;;;;;5026355;28;20807;-69
2022/04/04 06:13:50;;;;;;;13.07;11.63;;;1.10;99.90;;;;;;5008493;28;20202;-71
2022/04/04 06:16:15;;;;;;;12.97;11.40;;;1.10;99.90;;;;;;5008335;28;20190;-72
2022/04/04 06:18:41;;;;;;;12.90;11.50;;;1.10;99.90;;;;;;5026677;28;20423;-73
2022/04/04 06:21:07;;;;;;;12.30;9.60;;;1.10;99.90;;;;;;5025573;28;20320;-72
2022/04/04 06:23:33;;;;;;;10.77;9.67;;;1.20;99.90;;;;;;5008889;28;20538;-73
2022/04/04 06:26:00;;;;;;;11.40;10.20;;;1.00;99.90;;;;;;5025645;28;20188;-70
2022/04/04 06:28:27;;;;;;;10.60;9.53;;;1.00;99.90;;;;;;5026271;28;20416;-70
2022/04/04 06:30:54;;;;;;;10.83;9.73;;;1.10;99.90;;;;;;5026253;28;20547;-72
2022/04/04 06:33:20;;;;;;;10.70;9.60;;;1.30;99.90;;;;;;5026522;28;20441;-70
2022/04/04 06:35:48;;;;;;;11.40;10.07;;;1.40;99.90;;;;;;5026212;28;20934;-70
2022/04/04 06:38:18;;;;;;;12.37;9.70;;;1.30;99.90;;;;;;5026572;28;20443;-70
2022/04/04 06:40:44;;;;;;;12.10;9.57;;;1.40;99.90;;;;;;5025454;28;20486;-70
2022/04/04 06:43:09;;;;;;;11.20;10.03;;;1.40;99.90;;;;;;5025863;28;20510;-70
2022/04/04 06:45:35;;;;;;;12.17;10.27;;;1.30;99.90;;;;;;5025252;28;20461;-71
2022/04/04 06:48:00;;;;;;;10.70;9.00;;;1.40;99.90;;;;;;5008264;28;20794;-70
2022/04/04 06:50:26;;;;;;;8.37;7.57;;;1.60;99.90;;;;;;5025898;28;20681;-70
2022/04/04 06:52:52;;;;;;;13.90;10.33;;;1.70;99.90;;;;;;5026081;28;20261;-70
2022/04/04 06:55:19;;;;;;;9.03;8.13;;;1.90;99.90;;;;;;5026028;28;20260;-71
2022/04/04 06:57:44;;;;;;;10.00;9.00;;;2.20;99.90;;;;;;5026356;28;21028;-70
2022/04/04 07:00:12;;;;;;;9.40;7.80;;;2.20;99.90;;;;;;5026465;28;20499;-68
2022/04/04 07:02:38;;;;;;;8.63;7.83;;;2.30;99.90;;;;;;5026356;28;20254;-69
2022/04/04 07:05:05;;;;;;;8.43;7.60;;;2.40;99.90;;;;;;5025665;28;20406;-70
2022/04/04 07:07:31;;;;;;;7.97;7.17;;;2.40;99.90;;;;;;5025629;28;20414;-68
2022/04/04 07:09:57;;;;;;;8.93;8.03;;;2.50;99.90;;;;;;5026192;28;20438;-70
2022/04/04 07:12:22;;;;;;;8.93;7.90;;;2.70;99.90;;;;;;5025507;28;20458;-70
2022/04/04 07:14:48;;;;;;;10.70;7.40;;;3.10;99.90;;;;;;5025865;28;20644;-69
2022/04/04 07:17:14;;;;;;;10.20;8.20;;;3.00;99.90;;;;;;5025505;28;20171;-69
2022/04/04 07:19:39;;;;;;;10.67;7.30;;;3.10;99.90;;;;;;5007493;28;20656;-69
2022/04/04 07:22:05;;;;;;;10.00;7.80;;;3.20;99.90;;;;;;5024746;28;20225;-68
2022/04/04 07:24:31;;;;;;;7.33;6.53;;;3.20;99.90;;;;;;5025255;28;20541;-67
2022/04/04 07:26:56;;;;;;;7.53;6.83;;;3.40;99.90;;;;;;5007838;28;20687;-67
2022/04/04 07:29:23;;;;;;;9.60;7.73;;;3.70;99.90;;;;;;5024924;28;20178;-69
2022/04/04 07:31:48;;;;;;;7.77;7.03;;;3.90;99.90;;;;;;5025684;28;20621;-69
2022/04/04 07:34:14;;;;;;;10.83;8.17;;;4.10;99.90;;;;;;5025798;28;20463;-67
2022/04/04 07:36:40;;;;;;;8.47;7.70;;;4.20;99.90;;;;;;5024835;28;20475;-68
2022/04/04 07:39:07;;;;;;;8.30;7.50;;;4.10;99.90;;;;;;5025237;28;20187;-68
2022/04/04 07:41:33;;;;;;;8.10;7.27;;;4.30;99.90;;;;;;5025313;28;20418;-69
2022/04/04 07:43:58;;;;;;;7.83;7.03;;;4.50;99.90;;;;;;5025369;28;20515;-69
2022/04/04 07:46:24;;;;;;;8.50;7.60;;;4.50;99.90;;;;;;5025157;28;20421;-69
2022/04/04 07:48:54;;;;;;;10.10;7.87;;;4.60;99.90;;;;;;5025060;28;20187;-71
2022/04/04 07:51:20;;;;;;;8.97;8.07;;;4.60;99.90;;;;;;5024609;28;20171;-68
2022/04/04 07:53:46;;;;;;;10.03;7.70;;;4.90;99.90;;;;;;5024676;28;20829;-69
2022/04/04 07:56:11;;;;;;;8.17;7.40;;;4.90;99.90;;;;;;5006774;28;20418;-68
2022/04/04 07:58:37;;;;;;;8.27;7.47;;;4.80;99.90;;;;;;5024193;28;20723;-69
2022/04/04 08:01:03;;;;;;;8.10;7.30;;;5.00;99.90;;;;;;5024327;28;20179;-71
2022/04/04 08:03:29;;;;;;;8.00;7.30;;;4.90;99.90;;;;;;5024874;28;20203;-69
2022/04/04 08:05:55;;;;;;;8.40;7.63;;;4.70;99.90;;;;;;5024020;28;20182;-70
2022/04/04 08:08:20;;;;;;;8.10;7.20;;;4.60;99.90;;;;;;5024391;28;20414;-70
2022/04/04 08:10:46;;;;;;;11.33;7.70;;;4.70;99.90;;;;;;5024276;28;20440;-72
2022/04/04 08:13:11;;;;;;;9.23;8.17;;;4.70;99.90;;;;;;5024136;28;20542;-69
2022/04/04 08:15:37;;;;;;;9.23;7.43;;;4.70;99.90;;;;;;5024297;28;20265;-70
2022/04/04 08:18:04;;;;;;;8.23;7.43;;;4.70;99.90;;;;;;5024950;28;20187;-71
2022/04/04 08:20:30;;;;;;;11.27;8.30;;;4.80;99.90;;;;;;5023364;28;20628;-69
2022/04/04 08:22:55;;;;;;;8.80;7.90;;;5.00;99.90;;;;;;5030665;28;20496;-69
2022/04/04 08:25:21;;;;;;;7.93;7.13;;;5.10;99.90;;;;;;5032158;28;20444;-71
2022/04/04 08:27:47;;;;;;;7.53;6.87;;;5.00;99.40;;;;;;5032383;28;20573;-71
2022/04/04 08:30:15;;;;;;;9.40;8.60;;;5.20;98.90;;;;;;5031485;28;20189;-71
2022/04/04 08:32:42;;;;;;;9.70;8.73;;;5.20;98.90;;;;;;5032284;28;20187;-71
2022/04/04 08:35:09;;;;;;;8.60;7.87;;;5.10;97.60;;;;;;5031754;28;20930;-74
2022/04/04 08:37:36;;;;;;;8.87;8.00;;;5.20;98.80;;;;;;5032138;28;20906;-71
2022/04/04 08:40:04;;;;;;;9.07;7.57;;;5.30;98.50;;;;;;5026432;28;21626;-72
2022/04/04 08:42:30;;;;;;;8.97;7.90;;;5.40;98.40;;;;;;5025349;28;20425;-70
2022/04/04 08:44:57;;;;;;;8.50;7.60;;;5.50;97.80;;;;;;5025968;28;20418;-70
2022/04/04 08:47:24;;;;;;;8.10;7.40;;;5.50;96.60;;;;;;5008183;28;20784;-72
2022/04/04 08:49:54;;;;;;;26.03;10.40;;;5.50;96.30;;;;;;5024235;28;20410;-74
2022/04/04 08:52:20;;;;;;;9.20;8.30;;;5.60;97.20;;;;;;5023538;28;20541;-70
2022/04/04 08:54:46;;;;;;;9.33;7.60;;;5.80;97.50;;;;;;5023779;28;20801;-69
2022/04/04 08:57:11;;;;;;;8.93;8.00;;;5.90;96.10;;;;;;5024114;28;20417;-70
2022/04/04 08:59:38;;;;;;;8.43;7.63;;;5.90;96.00;;;;;;5024068;28;20545;-70
2022/04/04 09:02:04;;;;;;;8.50;7.80;;;5.90;96.60;;;;;;5023620;28;20191;-70
2022/04/04 09:04:32;;;;;;;7.90;7.20;;;5.50;95.00;;;;;;5023546;28;20544;-69
2022/04/04 09:06:58;;;;;;;8.50;7.77;;;5.40;96.80;;;;;;5023521;28;20414;-68
2022/04/04 09:09:26;;;;;;;7.97;7.27;;;5.40;94.50;;;;;;5024143;28;20425;-69
2022/04/04 09:12:13;;;;;;;9.13;7.37;;;5.50;95.60;;;;;;5023952;28;21406;-69
2022/04/04 09:14:48;;;;;;;9.73;7.53;;;5.80;96.00;;;;;;5024228;28;20460;-70
2022/04/04 09:17:15;;;;;;;8.53;7.73;;;5.70;94.30;;;;;;5023912;28;20417;-69
2022/04/04 09:19:41;;;;;;;13.30;8.17;;;5.90;94.30;;;;;;5023796;28;20414;-69
2022/04/04 09:22:15;;;;;;;8.70;7.97;;;6.00;95.00;;;;;;5023011;28;20445;-69
2022/04/04 09:24:45;;;;;;;8.90;8.13;;;6.00;93.80;;;;;;5023542;28;20203;-68
2022/04/04 09:27:32;;;;;;;7.60;6.73;;;5.90;94.00;;;;;;5023840;28;20413;-67
2022/04/04 09:30:04;;;;;;;7.80;7.20;;;5.80;91.30;;;;;;5024007;28;20406;-69
2022/04/04 09:32:37;;;;;;;7.60;7.00;;;5.90;90.90;;;;;;5023646;28;20473;-70
2022/04/04 09:35:09;;;;;;;7.47;6.77;;;6.20;90.70;;;;;;5022665;28;20990;-70
2022/04/04 09:37:35;;;;;;;6.80;6.20;;;6.20;88.90;;;;;;5022414;28;20402;-69
2022/04/04 09:40:09;;;;;;;7.63;6.93;;;6.30;89.90;;;;;;5023166;28;20433;-70
2022/04/04 09:42:35;;;;;;;7.43;6.93;;;6.50;91.50;;;;;;5023582;28;20430;-69
2022/04/04 09:45:01;;;;;;;9.23;7.13;;;6.60;88.80;;;;;;5023257;28;20418;-68
2022/04/04 09:47:48;;;;;;;9.40;8.60;;;6.50;89.40;;;;;;5023081;28;21443;-70
2022/04/04 09:50:39;;;;;;;8.53;7.73;;;6.50;91.10;;;;;;5023510;28;20770;-70
2022/04/04 09:53:11;;;;;;;8.50;7.70;;;6.80;90.10;;;;;;5022775;28;20535;-68
2022/04/04 09:55:46;;;;;;;7.97;7.27;;;6.70;91.30;;;;;;5023508;28;20410;-68
2022/04/04 09:58:15;;;;;;;7.10;6.40;;;6.80;90.20;;;;;;5023537;28;20409;-69
2022/04/04 10:00:42;;;;;;;8.47;7.77;;;6.70;90.20;;;;;;5022869;28;20424;-70
2022/04/04 10:03:12;;;;;;;7.50;6.80;;;6.70;90.50;;;;;;5022808;28;20481;-70
2022/04/04 10:05:43;;;;;;;10.27;8.17;;;6.80;93.10;;;;;;5022990;28;20431;-70
2022/04/04 10:08:13;;;;;;;7.60;7.00;;;7.10;91.70;;;;;;5022750;28;20413;-70
2022/04/04 10:10:39;;;;;;;8.60;7.80;;;7.00;91.50;;;;;;5023145;28;20442;-70
2022/04/04 10:13:05;;;;;;;8.97;8.13;;;7.10;91.50;;;;;;5022861;28;20469;-69
2022/04/04 10:15:34;;;;;;;8.20;7.40;;;7.00;91.20;;;;;;5025311;28;20480;-69
2022/04/04 10:18:00;;;;;;;9.87;8.87;;;7.10;92.00;;;;;;5026689;28;20827;-70
2022/04/04 10:20:25;;;;;;;8.13;7.30;;;7.40;91.70;;;;;;5025920;28;20413;-70
2022/04/04 10:22:53;;;;;;;8.03;7.23;;;7.50;92.90;;;;;;5025885;28;20998;-69
2022/04/04 10:25:23;;;;;;;9.27;8.20;;;7.50;91.70;;;;;;5026843;28;20186;-71
2022/04/04 10:27:49;;;;;;;9.97;8.97;;;7.80;92.00;;;;;;5028230;28;20399;-69
2022/04/04 10:30:16;;;;;;;8.73;7.37;;;7.60;91.20;;;;;;5026802;28;20445;-70
2022/04/04 10:32:54;;;;;;;9.33;8.53;;;7.70;92.50;;;;;;5025945;28;20209;-70
2022/04/04 10:35:26;;;;;;;8.17;7.40;;;8.10;93.40;;;;;;5026280;28;20403;-69
2022/04/04 10:37:52;;;;;;;8.70;7.90;;;8.30;91.80;;;;;;5025793;28;20426;-69
2022/04/04 10:40:24;;;;;;;9.43;8.47;;;8.30;91.70;;;;;;5008490;28;20434;-69
2022/04/04 10:43:11;;;;;;;8.53;7.73;;;8.40;91.90;;;;;;5026161;28;20452;-70
2022/04/04 10:45:58;;;;;;;8.30;7.60;;;8.30;91.40;;;;;;5026047;28;20443;-69
2022/04/04 10:48:28;;;;;;;8.77;8.07;;;8.20;92.40;;;;;;5026069;28;20495;-70
2022/04/04 10:50:54;;;;;;;8.00;7.30;;;8.40;90.80;;;;;;5026134;28;20413;-70
2022/04/04 10:53:46;;;;;;;8.77;8.07;;;9.10;90.00;;;;;;5025310;28;20453;-70
2022/04/04 10:56:17;;;;;;;7.30;6.70;;;10.30;88.50;;;;;;5026026;28;20509;-71
2022/04/04 10:58:43;;;;;;;8.00;7.30;;;11.70;84.50;;;;;;5026211;28;20409;-70
2022/04/04 11:01:15;;;;;;;7.17;6.57;;;12.70;76.00;;;;;;5025720;28;20414;-70
2022/04/04 11:03:51;;;;;;;7.87;7.00;;;13.30;73.40;;;;;;5026821;28;20194;-70
2022/04/04 11:09:01;;;;;;;7.20;6.50;;;11.60;70.20;;;;;;5026289;28;20978;-70
2022/04/04 11:11:40;;;;;;;9.07;7.50;;;12.00;66.90;;;;;;5025662;28;20441;-70
2022/04/04 11:14:06;;;;;;;6.47;5.97;;;12.60;72.10;;;;;;5025393;28;20495;-69
2022/04/04 11:17:06;;;;;;;8.00;7.20;;;12.40;66.20;;;;;;5025711;28;21007;-70
2022/04/04 11:20:00;;;;;;;7.20;6.60;;;13.00;66.80;;;;;;5025490;28;21116;-70
2022/04/04 11:22:34;;;;;;;7.17;5.73;;;14.50;61.60;;;;;;5024729;28;20433;-69
2022/04/04 11:25:03;;;;;;;6.17;5.63;;;14.40;61.50;;;;;;5025489;28;20414;-70
2022/04/04 11:27:33;;;;;;;6.33;5.53;;;14.90;58.40;;;;;;5024499;28;20422;-71
2022/04/04 11:29:59;;;;;;;6.57;6.07;;;15.20;58.60;;;;;;5024945;28;20414;-72
2022/04/04 11:32:34;;;;;;;7.50;6.87;;;;;;;;;;5025600;28;20423;-71
2022/04/04 11:35:09;;;;;;;5.90;5.40;;;;;;;;;;5025420;28;21201;-70
2022/04/04 11:37:41;;;;;;;6.00;5.60;;;;;;;;;;5024756;28;20419;-73
2022/04/04 11:40:13;;;;;;;6.23;5.73;;;;;;;;;;5025268;28;20409;-72
2022/04/04 11:42:40;;;;;;;5.90;5.40;;;;;;;;;;5025264;28;20426;-72
2022/04/04 11:45:08;;;;;;;6.63;6.03;;;15.70;60.70;;;;;;5007315;28;20432;-71
2022/04/04 11:47:39;;;;;;;5.40;5.00;;;16.30;57.90;;;;;;5024926;28;20421;-71
2022/04/04 11:50:06;;;;;;;6.13;5.53;;;17.70;55.40;;;;;;5025239;28;20442;-71
2022/04/04 11:52:45;;;;;;;5.60;5.17;;;17.60;54.70;;;;;;5023981;28;20457;-72
2022/04/04 11:55:14;;;;;;;6.30;5.80;;;17.30;55.60;;;;;;5024905;28;20409;-69
2022/04/04 11:57:39;;;;;;;5.80;5.30;;;17.40;53.90;;;;;;5024577;28;20416;-71
2022/04/04 12:00:10;;;;;;;6.77;6.17;;;17.30;51.80;;;;;;5024888;28;20785;-70
2022/04/04 12:02:36;;;;;;;6.23;5.73;;;17.80;53.50;;;;;;5024416;28;20188;-69
2022/04/04 12:05:05;;;;;;;5.50;5.10;;;17.60;53.30;;;;;;5024286;28;20429;-69
2022/04/04 12:07:33;;;;;;;6.10;5.50;;;17.30;51.50;;;;;;5023767;28;20444;-69
2022/04/04 12:10:01;;;;;;;5.63;5.23;;;16.50;53.30;;;;;;5024298;28;20422;-70
2022/04/04 12:12:31;;;;;;;5.80;5.37;;;17.40;52.30;;;;;;5024279;28;20497;-70
2022/04/04 12:14:56;;;;;;;6.60;6.00;;;16.80;51.20;;;;;;5024749;28;20492;-71
2022/04/04 12:17:25;;;;;;;6.40;5.83;;;17.00;51.90;;;;;;5024077;28;20477;-70
2022/04/04 12:19:52;;;;;;;5.83;5.33;;;16.40;52.00;;;;;;5024045;28;20182;-71
2022/04/04 12:25:05;;;;;;;5.80;5.30;;;16.40;51.20;;;;;;5024307;28;20405;-73
2022/04/04 12:27:31;;;;;;;5.90;5.40;;;15.30;52.70;;;;;;5006230;28;20818;-70
2022/04/04 12:30:05;;;;;;;5.80;5.40;;;16.30;56.70;;;;;;5024378;28;20394;-70
2022/04/04 12:32:37;;;;;;;6.10;5.50;;;16.80;52.80;;;;;;5023198;28;20823;-73
2022/04/04 12:35:06;;;;;;;5.60;5.20;;;16.70;53.60;;;;;;5023931;28;20477;-71
2022/04/04 12:37:43;;;;;;;6.87;6.27;;;17.90;52.00;;;;;;5022404;28;20414;-72
2022/04/04 12:40:17;;;;;;;6.60;5.90;;;17.00;51.30;;;;;;5024051;28;20907;-69
2022/04/04 12:42:44;;;;;;;7.70;6.20;;;16.50;51.20;;;;;;5024013;28;21077;-71
2022/04/04 12:45:11;;;;;;;6.33;5.83;;;17.20;54.30;;;;;;5024143;28;20409;-71
2022/04/04 12:48:07;;;;;;;8.80;6.10;;;16.10;52.00;;;;;;5024191;28;20429;-71
2022/04/04 12:50:40;;;;;;;8.27;7.57;;;15.90;53.10;;;;;;5024609;28;20462;-73
2022/04/04 12:53:07;;;;;;;6.70;5.90;;;16.50;53.00;;;;;;5023562;28;20469;-74
2022/04/04 12:55:35;;;;;;;7.20;6.50;;;16.90;53.10;;;;;;5023633;28;20422;-71
2022/04/04 12:58:22;;;;;;;6.97;6.37;;;17.80;52.70;;;;;;5023459;28;20410;-72
2022/04/04 13:00:48;;;;;;;6.27;5.77;;;18.20;50.20;;;;;;5023295;28;20453;-71